sensor_id;sensor_type;location;lat;lon;timestamp;P1;durP1;ratioP1;P2;durP2;ratioP2
43700;SDS011;58809;47.984;7.964;2022-11-18T00:00:55;6.10;;;1.60;;
43700;SDS011;58809;47.984;7.964;2022-11-18T00:03:57;4.68;;;1.60;;
43700;SDS011;58809;47.984;7.964;2022-11-18T00:06:58;5.57;;;1.38;;
43700;SDS011;58809;47.984;7.964;2022-11-18T00:10:00;3.53;;;1.25;;
43700;SDS011;58809;47.984;7.964;2022-11-18T00:13:02;1.15;;;0.80;;
43700;SDS011;58809;47.984;7.964;2022-11-18T00:16:24;1.38;;;0.82;;
43700;SDS011;58809;47.984;7.964;2022-11-18T00:19:26;3.28;;;1.05;;
43700;SDS011;58809;47.984;7.964;2022-11-18T00:22:30;0.68;;;0.50;;
43700;SDS011;58809;47.984;7.964;2022-11-18T00:25:32;0.88;;;0.57;;
43700;SDS011;58809;47.984;7.964;2022-11-18T00:28:34;1.55;;;0.47;;
43700;SDS011;58809;47.984;7.964;2022-11-18T00:31:36;1.10;;;0.60;;
43700;SDS011;58809;47.984;7.964;2022-11-18T00:34:38;1.13;;;0.52;;
43700;SDS011;58809;47.984;7.964;2022-11-18T00:37:40;1.48;;;0.65;;
43700;SDS011;58809;47.984;7.964;2022-11-18T00:40:41;0.45;;;0.45;;
43700;SDS011;58809;47.984;7.964;2022-11-18T00:43:43;2.30;;;0.60;;
43700;SDS011;58809;47.984;7.964;2022-11-18T00:46:44;1.02;;;0.93;;
43700;SDS011;58809;47.984;7.964;2022-11-18T00:49:46;2.72;;;0.68;;
43700;SDS011;58809;47.984;7.964;2022-11-18T00:52:47;1.30;;;0.60;;
43700;SDS011;58809;47.984;7.964;2022-11-18T00:55:49;0.50;;;0.40;;
43700;SDS011;58809;47.984;7.964;2022-11-18T00:58:51;1.38;;;0.90;;
43700;SDS011;58809;47.984;7.964;2022-11-18T01:01:52;0.70;;;0.70;;
43700;SDS011;58809;47.984;7.964;2022-11-18T01:04:54;1.85;;;0.45;;
43700;SDS011;58809;47.984;7.964;2022-11-18T01:07:56;0.77;;;0.43;;
43700;SDS011;58809;47.984;7.964;2022-11-18T01:10:57;0.40;;;0.35;;
43700;SDS011;58809;47.984;7.964;2022-11-18T01:14:19;0.25;;;0.25;;
43700;SDS011;58809;47.984;7.964;2022-11-18T01:17:20;1.75;;;0.40;;
43700;SDS011;58809;47.984;7.964;2022-11-18T01:20:22;0.43;;;0.43;;
43700;SDS011;58809;47.984;7.964;2022-11-18T01:23:23;0.75;;;0.55;;
43700;SDS011;58809;47.984;7.964;2022-11-18T01:26:25;1.23;;;0.70;;
43700;SDS011;58809;47.984;7.964;2022-11-18T01:29:27;0.80;;;0.50;;
43700;SDS011;58809;47.984;7.964;2022-11-18T01:32:29;1.25;;;0.52;;
43700;SDS011;58809;47.984;7.964;2022-11-18T01:35:34;1.30;;;0.35;;
43700;SDS011;58809;47.984;7.964;2022-11-18T01:38:37;0.35;;;0.30;;
43700;SDS011;58809;47.984;7.964;2022-11-18T01:41:38;0.20;;;0.20;;
43700;SDS011;58809;47.984;7.964;2022-11-18T01:44:55;0.32;;;0.32;;
43700;SDS011;58809;47.984;7.964;2022-11-18T01:51:18;2.40;;;0.50;;
43700;SDS011;58809;47.984;7.964;2022-11-18T01:54:28;2.10;;;0.90;;
43700;SDS011;58809;47.984;7.964;2022-11-18T01:57:34;0.90;;;0.25;;
43700;SDS011;58809;47.984;7.964;2022-11-18T02:00:35;0.45;;;0.40;;
43700;SDS011;58809;47.984;7.964;2022-11-18T02:03:38;0.52;;;0.45;;
43700;SDS011;58809;47.984;7.964;2022-11-18T02:06:43;1.42;;;0.32;;
43700;SDS011;58809;47.984;7.964;2022-11-18T02:09:46;0.60;;;0.30;;
43700;SDS011;58809;47.984;7.964;2022-11-18T02:12:48;1.45;;;0.52;;
43700;SDS011;58809;47.984;7.964;2022-11-18T02:19:02;0.38;;;0.30;;
43700;SDS011;58809;47.984;7.964;2022-11-18T02:32:40;0.32;;;0.30;;
43700;SDS011;58809;47.984;7.964;2022-11-18T02:35:50;0.20;;;0.20;;
43700;SDS011;58809;47.984;7.964;2022-11-18T02:38:58;0.80;;;0.40;;
43700;SDS011;58809;47.984;7.964;2022-11-18T02:42:06;0.52;;;0.28;;
43700;SDS011;58809;47.984;7.964;2022-11-18T02:45:13;0.38;;;0.38;;
43700;SDS011;58809;47.984;7.964;2022-11-18T02:48:18;1.50;;;0.30;;
43700;SDS011;58809;47.984;7.964;2022-11-18T02:51:24;0.40;;;0.32;;
43700;SDS011;58809;47.984;7.964;2022-11-18T02:54:28;0.50;;;0.50;;
43700;SDS011;58809;47.984;7.964;2022-11-18T02:57:30;0.75;;;0.40;;
43700;SDS011;58809;47.984;7.964;2022-11-18T03:00:35;0.40;;;0.30;;
43700;SDS011;58809;47.984;7.964;2022-11-18T03:03:36;1.45;;;0.60;;
43700;SDS011;58809;47.984;7.964;2022-11-18T03:06:47;0.90;;;0.47;;
43700;SDS011;58809;47.984;7.964;2022-11-18T03:10:02;1.27;;;0.82;;
43700;SDS011;58809;47.984;7.964;2022-11-18T03:13:08;0.98;;;0.45;;
43700;SDS011;58809;47.984;7.964;2022-11-18T03:16:19;0.82;;;0.63;;
43700;SDS011;58809;47.984;7.964;2022-11-18T03:22:52;2.33;;;0.73;;
43700;SDS011;58809;47.984;7.964;2022-11-18T03:26:14;0.43;;;0.43;;
43700;SDS011;58809;47.984;7.964;2022-11-18T03:29:22;0.38;;;0.38;;
43700;SDS011;58809;47.984;7.964;2022-11-18T03:32:30;1.60;;;0.50;;
43700;SDS011;58809;47.984;7.964;2022-11-18T03:35:38;0.50;;;0.50;;
43700;SDS011;58809;47.984;7.964;2022-11-18T03:38:47;1.70;;;0.60;;
43700;SDS011;58809;47.984;7.964;2022-11-18T03:41:54;1.65;;;0.75;;
43700;SDS011;58809;47.984;7.964;2022-11-18T03:45:04;1.67;;;0.73;;
43700;SDS011;58809;47.984;7.964;2022-11-18T03:51:32;0.20;;;0.20;;
43700;SDS011;58809;47.984;7.964;2022-11-18T03:54:40;0.52;;;0.47;;
43700;SDS011;58809;47.984;7.964;2022-11-18T04:00:59;0.45;;;0.30;;
43700;SDS011;58809;47.984;7.964;2022-11-18T04:04:08;2.08;;;0.50;;
43700;SDS011;58809;47.984;7.964;2022-11-18T04:11:05;0.57;;;0.20;;
43700;SDS011;58809;47.984;7.964;2022-11-18T04:14:35;0.32;;;0.32;;
43700;SDS011;58809;47.984;7.964;2022-11-18T04:17:39;0.57;;;0.40;;
43700;SDS011;58809;47.984;7.964;2022-11-18T04:20:42;0.50;;;0.50;;
43700;SDS011;58809;47.984;7.964;2022-11-18T04:23:51;0.38;;;0.38;;
43700;SDS011;58809;47.984;7.964;2022-11-18T04:26:53;0.40;;;0.40;;
43700;SDS011;58809;47.984;7.964;2022-11-18T04:29:55;1.20;;;0.30;;
43700;SDS011;58809;47.984;7.964;2022-11-18T04:32:56;0.68;;;0.60;;
43700;SDS011;58809;47.984;7.964;2022-11-18T04:35:58;0.60;;;0.60;;
43700;SDS011;58809;47.984;7.964;2022-11-18T04:39:00;0.75;;;0.47;;
43700;SDS011;58809;47.984;7.964;2022-11-18T04:42:02;1.35;;;0.50;;
43700;SDS011;58809;47.984;7.964;2022-11-18T04:45:03;0.30;;;0.30;;
43700;SDS011;58809;47.984;7.964;2022-11-18T04:48:06;0.90;;;0.60;;
43700;SDS011;58809;47.984;7.964;2022-11-18T04:51:07;1.05;;;0.70;;
43700;SDS011;58809;47.984;7.964;2022-11-18T04:54:09;2.08;;;0.60;;
43700;SDS011;58809;47.984;7.964;2022-11-18T04:57:12;2.17;;;0.73;;
43700;SDS011;58809;47.984;7.964;2022-11-18T05:00:13;0.30;;;0.30;;
43700;SDS011;58809;47.984;7.964;2022-11-18T05:03:15;0.65;;;0.60;;
43700;SDS011;58809;47.984;7.964;2022-11-18T05:06:17;0.45;;;0.40;;
43700;SDS011;58809;47.984;7.964;2022-11-18T05:09:18;1.23;;;0.57;;
43700;SDS011;58809;47.984;7.964;2022-11-18T05:12:21;0.20;;;0.20;;
43700;SDS011;58809;47.984;7.964;2022-11-18T05:15:41;0.88;;;0.43;;
43700;SDS011;58809;47.984;7.964;2022-11-18T05:18:42;0.63;;;0.60;;
43700;SDS011;58809;47.984;7.964;2022-11-18T05:21:44;1.75;;;1.50;;
43700;SDS011;58809;47.984;7.964;2022-11-18T05:24:46;1.42;;;1.08;;
43700;SDS011;58809;47.984;7.964;2022-11-18T05:27:47;0.30;;;0.30;;
43700;SDS011;58809;47.984;7.964;2022-11-18T05:30:49;0.68;;;0.60;;
43700;SDS011;58809;47.984;7.964;2022-11-18T05:33:50;1.65;;;0.63;;
43700;SDS011;58809;47.984;7.964;2022-11-18T05:36:52;3.35;;;1.30;;
43700;SDS011;58809;47.984;7.964;2022-11-18T05:39:54;2.45;;;1.17;;
43700;SDS011;58809;47.984;7.964;2022-11-18T05:42:55;0.93;;;0.47;;
43700;SDS011;58809;47.984;7.964;2022-11-18T05:46:12;0.93;;;0.90;;
43700;SDS011;58809;47.984;7.964;2022-11-18T05:49:16;1.35;;;0.50;;
43700;SDS011;58809;47.984;7.964;2022-11-18T05:52:20;0.32;;;0.20;;
43700;SDS011;58809;47.984;7.964;2022-11-18T05:55:23;0.60;;;0.40;;
43700;SDS011;58809;47.984;7.964;2022-11-18T05:58:27;0.30;;;0.22;;
43700;SDS011;58809;47.984;7.964;2022-11-18T06:01:52;0.63;;;0.32;;
43700;SDS011;58809;47.984;7.964;2022-11-18T06:05:02;0.80;;;0.32;;
43700;SDS011;58809;47.984;7.964;2022-11-18T06:08:05;0.63;;;0.60;;
43700;SDS011;58809;47.984;7.964;2022-11-18T06:11:11;0.60;;;0.43;;
43700;SDS011;58809;47.984;7.964;2022-11-18T06:14:17;0.20;;;0.20;;
43700;SDS011;58809;47.984;7.964;2022-11-18T06:17:26;2.20;;;0.30;;
43700;SDS011;58809;47.984;7.964;2022-11-18T06:20:32;0.60;;;0.40;;
43700;SDS011;58809;47.984;7.964;2022-11-18T06:23:38;1.10;;;0.60;;
43700;SDS011;58809;47.984;7.964;2022-11-18T06:26:41;0.50;;;0.38;;
43700;SDS011;58809;47.984;7.964;2022-11-18T06:29:43;0.20;;;0.20;;
43700;SDS011;58809;47.984;7.964;2022-11-18T06:32:45;4.20;;;3.80;;
43700;SDS011;58809;47.984;7.964;2022-11-18T06:35:49;1.38;;;1.00;;
43700;SDS011;58809;47.984;7.964;2022-11-18T06:38:51;0.50;;;0.30;;
43700;SDS011;58809;47.984;7.964;2022-11-18T06:41:52;0.40;;;0.40;;
43700;SDS011;58809;47.984;7.964;2022-11-18T06:44:54;0.57;;;0.38;;
43700;SDS011;58809;47.984;7.964;2022-11-18T06:47:56;0.75;;;0.28;;
43700;SDS011;58809;47.984;7.964;2022-11-18T06:50:58;0.85;;;0.55;;
43700;SDS011;58809;47.984;7.964;2022-11-18T06:54:00;0.22;;;0.20;;
43700;SDS011;58809;47.984;7.964;2022-11-18T06:57:09;0.60;;;0.47;;
43700;SDS011;58809;47.984;7.964;2022-11-18T07:00:11;1.75;;;0.73;;
43700;SDS011;58809;47.984;7.964;2022-11-18T07:03:13;1.98;;;0.77;;
43700;SDS011;58809;47.984;7.964;2022-11-18T07:06:15;1.45;;;0.77;;
43700;SDS011;58809;47.984;7.964;2022-11-18T07:12:20;1.13;;;0.70;;
43700;SDS011;58809;47.984;7.964;2022-11-18T07:15:22;0.80;;;0.70;;
43700;SDS011;58809;47.984;7.964;2022-11-18T07:18:23;0.77;;;0.77;;
43700;SDS011;58809;47.984;7.964;2022-11-18T07:21:25;2.35;;;1.10;;
43700;SDS011;58809;47.984;7.964;2022-11-18T07:24:31;2.40;;;0.90;;
43700;SDS011;58809;47.984;7.964;2022-11-18T07:27:33;1.02;;;0.88;;
43700;SDS011;58809;47.984;7.964;2022-11-18T07:30:34;1.02;;;0.90;;
43700;SDS011;58809;47.984;7.964;2022-11-18T07:33:36;0.60;;;0.60;;
43700;SDS011;58809;47.984;7.964;2022-11-18T07:36:39;2.13;;;1.13;;
43700;SDS011;58809;47.984;7.964;2022-11-18T07:39:40;1.45;;;0.88;;
43700;SDS011;58809;47.984;7.964;2022-11-18T07:42:42;1.30;;;1.13;;
43700;SDS011;58809;47.984;7.964;2022-11-18T07:45:56;0.80;;;0.77;;
43700;SDS011;58809;47.984;7.964;2022-11-18T07:48:58;2.50;;;0.80;;
43700;SDS011;58809;47.984;7.964;2022-11-18T07:52:02;1.48;;;1.00;;
43700;SDS011;58809;47.984;7.964;2022-11-18T07:55:03;2.85;;;1.10;;
43700;SDS011;58809;47.984;7.964;2022-11-18T07:58:11;1.77;;;0.77;;
43700;SDS011;58809;47.984;7.964;2022-11-18T08:01:17;2.33;;;0.80;;
43700;SDS011;58809;47.984;7.964;2022-11-18T08:04:20;2.97;;;1.10;;
43700;SDS011;58809;47.984;7.964;2022-11-18T08:07:21;5.80;;;1.63;;
43700;SDS011;58809;47.984;7.964;2022-11-18T08:10:29;1.48;;;1.02;;
43700;SDS011;58809;47.984;7.964;2022-11-18T08:13:31;2.10;;;1.48;;
43700;SDS011;58809;47.984;7.964;2022-11-18T08:19:45;2.00;;;1.30;;
43700;SDS011;58809;47.984;7.964;2022-11-18T08:22:46;6.18;;;1.70;;
43700;SDS011;58809;47.984;7.964;2022-11-18T08:25:48;1.52;;;1.10;;
43700;SDS011;58809;47.984;7.964;2022-11-18T08:28:50;3.15;;;1.27;;
43700;SDS011;58809;47.984;7.964;2022-11-18T08:31:51;1.80;;;1.20;;
43700;SDS011;58809;47.984;7.964;2022-11-18T08:34:53;1.38;;;1.02;;
43700;SDS011;58809;47.984;7.964;2022-11-18T08:37:55;3.28;;;1.00;;
43700;SDS011;58809;47.984;7.964;2022-11-18T08:40:57;2.28;;;1.10;;
43700;SDS011;58809;47.984;7.964;2022-11-18T08:44:02;3.85;;;1.25;;
43700;SDS011;58809;47.984;7.964;2022-11-18T08:47:04;4.72;;;1.45;;
43700;SDS011;58809;47.984;7.964;2022-11-18T08:50:07;2.10;;;1.75;;
43700;SDS011;58809;47.984;7.964;2022-11-18T08:53:09;2.38;;;1.30;;
43700;SDS011;58809;47.984;7.964;2022-11-18T08:56:11;2.55;;;1.48;;
43700;SDS011;58809;47.984;7.964;2022-11-18T08:59:16;1.05;;;0.90;;
43700;SDS011;58809;47.984;7.964;2022-11-18T09:02:19;2.35;;;0.85;;
43700;SDS011;58809;47.984;7.964;2022-11-18T09:05:23;2.08;;;1.17;;
43700;SDS011;58809;47.984;7.964;2022-11-18T09:08:25;3.17;;;1.27;;
43700;SDS011;58809;47.984;7.964;2022-11-18T09:11:27;1.70;;;0.85;;
43700;SDS011;58809;47.984;7.964;2022-11-18T09:14:28;1.65;;;1.42;;
43700;SDS011;58809;47.984;7.964;2022-11-18T09:17:50;1.13;;;1.02;;
43700;SDS011;58809;47.984;7.964;2022-11-18T09:24:14;2.22;;;1.58;;
43700;SDS011;58809;47.984;7.964;2022-11-18T09:27:17;1.95;;;1.17;;
43700;SDS011;58809;47.984;7.964;2022-11-18T09:30:18;2.20;;;1.73;;
43700;SDS011;58809;47.984;7.964;2022-11-18T09:33:20;2.10;;;1.83;;
43700;SDS011;58809;47.984;7.964;2022-11-18T09:36:23;2.17;;;1.40;;
43700;SDS011;58809;47.984;7.964;2022-11-18T09:39:25;2.03;;;1.25;;
43700;SDS011;58809;47.984;7.964;2022-11-18T09:45:52;1.23;;;1.10;;
43700;SDS011;58809;47.984;7.964;2022-11-18T09:49:07;1.55;;;1.00;;
43700;SDS011;58809;47.984;7.964;2022-11-18T09:52:17;2.17;;;1.20;;
43700;SDS011;58809;47.984;7.964;2022-11-18T09:55:20;2.83;;;1.23;;
43700;SDS011;58809;47.984;7.964;2022-11-18T09:58:27;0.88;;;0.88;;
43700;SDS011;58809;47.984;7.964;2022-11-18T10:01:34;2.05;;;1.45;;
43700;SDS011;58809;47.984;7.964;2022-11-18T10:04:37;3.55;;;1.80;;
43700;SDS011;58809;47.984;7.964;2022-11-18T10:07:49;3.90;;;1.90;;
43700;SDS011;58809;47.984;7.964;2022-11-18T10:14:34;10.80;;;8.32;;
43700;SDS011;58809;47.984;7.964;2022-11-18T10:24:52;3.33;;;3.00;;
43700;SDS011;58809;47.984;7.964;2022-11-18T10:31:09;1.95;;;1.80;;
43700;SDS011;58809;47.984;7.964;2022-11-18T10:34:12;2.17;;;1.77;;
43700;SDS011;58809;47.984;7.964;2022-11-18T10:37:29;2.55;;;1.52;;
43700;SDS011;58809;47.984;7.964;2022-11-18T10:43:53;1.60;;;1.50;;
43700;SDS011;58809;47.984;7.964;2022-11-18T10:47:13;2.13;;;1.47;;
43700;SDS011;58809;47.984;7.964;2022-11-18T10:53:33;2.88;;;1.65;;
43700;SDS011;58809;47.984;7.964;2022-11-18T10:59:51;1.63;;;1.17;;
43700;SDS011;58809;47.984;7.964;2022-11-18T11:02:55;0.90;;;0.90;;
43700;SDS011;58809;47.984;7.964;2022-11-18T11:06:20;1.63;;;0.80;;
43700;SDS011;58809;47.984;7.964;2022-11-18T11:09:29;1.65;;;1.45;;
43700;SDS011;58809;47.984;7.964;2022-11-18T11:12:53;2.13;;;1.17;;
43700;SDS011;58809;47.984;7.964;2022-11-18T11:15:57;1.98;;;1.25;;
43700;SDS011;58809;47.984;7.964;2022-11-18T11:19:03;1.52;;;1.00;;
43700;SDS011;58809;47.984;7.964;2022-11-18T11:22:09;1.38;;;0.80;;
43700;SDS011;58809;47.984;7.964;2022-11-18T11:25:32;2.42;;;1.35;;
43700;SDS011;58809;47.984;7.964;2022-11-18T11:29:14;1.83;;;1.55;;
43700;SDS011;58809;47.984;7.964;2022-11-18T11:49:34;1.30;;;1.20;;
43700;SDS011;58809;47.984;7.964;2022-11-18T11:59:33;1.63;;;1.10;;
43700;SDS011;58809;47.984;7.964;2022-11-18T12:02:56;1.92;;;1.38;;
43700;SDS011;58809;47.984;7.964;2022-11-18T12:06:19;1.00;;;0.90;;
43700;SDS011;58809;47.984;7.964;2022-11-18T12:09:25;0.77;;;0.77;;
43700;SDS011;58809;47.984;7.964;2022-11-18T12:12:42;1.08;;;1.00;;
43700;SDS011;58809;47.984;7.964;2022-11-18T12:19:19;1.88;;;1.73;;
43700;SDS011;58809;47.984;7.964;2022-11-18T12:22:22;3.33;;;1.80;;
43700;SDS011;58809;47.984;7.964;2022-11-18T12:28:47;1.20;;;1.10;;
43700;SDS011;58809;47.984;7.964;2022-11-18T12:31:58;1.48;;;1.00;;
43700;SDS011;58809;47.984;7.964;2022-11-18T12:38:29;0.88;;;0.88;;
43700;SDS011;58809;47.984;7.964;2022-11-18T12:44:59;1.95;;;1.50;;
43700;SDS011;58809;47.984;7.964;2022-11-18T12:52:44;1.67;;;1.10;;
43700;SDS011;58809;47.984;7.964;2022-11-18T12:55:43;1.27;;;1.08;;
43700;SDS011;58809;47.984;7.964;2022-11-18T12:58:45;3.10;;;1.42;;
43700;SDS011;58809;47.984;7.964;2022-11-18T13:05:18;1.77;;;1.50;;
43700;SDS011;58809;47.984;7.964;2022-11-18T13:08:25;2.20;;;1.43;;
43700;SDS011;58809;47.984;7.964;2022-11-18T13:11:29;1.02;;;0.95;;
43700;SDS011;58809;47.984;7.964;2022-11-18T13:14:45;2.63;;;1.38;;
43700;SDS011;58809;47.984;7.964;2022-11-18T13:18:06;1.92;;;1.30;;
43700;SDS011;58809;47.984;7.964;2022-11-18T13:21:18;2.53;;;1.45;;
43700;SDS011;58809;47.984;7.964;2022-11-18T13:24:47;1.48;;;1.20;;
43700;SDS011;58809;47.984;7.964;2022-11-18T13:27:54;3.03;;;1.48;;
43700;SDS011;58809;47.984;7.964;2022-11-18T13:34:24;2.45;;;1.77;;
43700;SDS011;58809;47.984;7.964;2022-11-18T13:37:27;2.60;;;1.70;;
43700;SDS011;58809;47.984;7.964;2022-11-18T13:40:37;2.75;;;1.83;;
43700;SDS011;58809;47.984;7.964;2022-11-18T13:44:21;2.33;;;1.52;;
43700;SDS011;58809;47.984;7.964;2022-11-18T13:50:48;4.35;;;1.75;;
43700;SDS011;58809;47.984;7.964;2022-11-18T13:53:55;3.38;;;1.88;;
43700;SDS011;58809;47.984;7.964;2022-11-18T13:56:56;3.60;;;1.88;;
43700;SDS011;58809;47.984;7.964;2022-11-18T14:00:00;4.95;;;1.95;;
43700;SDS011;58809;47.984;7.964;2022-11-18T14:09:35;6.30;;;2.00;;
43700;SDS011;58809;47.984;7.964;2022-11-18T14:12:37;4.72;;;1.80;;
43700;SDS011;58809;47.984;7.964;2022-11-18T14:15:38;5.13;;;1.85;;
43700;SDS011;58809;47.984;7.964;2022-11-18T14:18:44;5.70;;;2.08;;
43700;SDS011;58809;47.984;7.964;2022-11-18T14:21:48;4.00;;;2.08;;
43700;SDS011;58809;47.984;7.964;2022-11-18T14:25:33;3.78;;;1.95;;
43700;SDS011;58809;47.984;7.964;2022-11-18T14:28:35;2.00;;;1.63;;
43700;SDS011;58809;47.984;7.964;2022-11-18T14:31:40;5.47;;;1.58;;
43700;SDS011;58809;47.984;7.964;2022-11-18T14:34:42;2.78;;;1.65;;
43700;SDS011;58809;47.984;7.964;2022-11-18T14:37:44;2.78;;;1.45;;
43700;SDS011;58809;47.984;7.964;2022-11-18T14:40:46;4.85;;;2.20;;
43700;SDS011;58809;47.984;7.964;2022-11-18T14:43:54;2.80;;;1.70;;
43700;SDS011;58809;47.984;7.964;2022-11-18T14:47:02;4.78;;;2.40;;
43700;SDS011;58809;47.984;7.964;2022-11-18T14:50:13;5.25;;;2.40;;
43700;SDS011;58809;47.984;7.964;2022-11-18T14:53:15;6.50;;;2.33;;
43700;SDS011;58809;47.984;7.964;2022-11-18T14:56:18;6.50;;;1.95;;
43700;SDS011;58809;47.984;7.964;2022-11-18T14:59:21;4.35;;;2.15;;
43700;SDS011;58809;47.984;7.964;2022-11-18T15:02:23;5.40;;;2.50;;
43700;SDS011;58809;47.984;7.964;2022-11-18T15:05:25;4.93;;;2.45;;
43700;SDS011;58809;47.984;7.964;2022-11-18T15:08:26;6.60;;;2.75;;
43700;SDS011;58809;47.984;7.964;2022-11-18T15:11:28;5.47;;;2.53;;
43700;SDS011;58809;47.984;7.964;2022-11-18T15:14:30;5.95;;;2.50;;
43700;SDS011;58809;47.984;7.964;2022-11-18T15:17:31;4.60;;;2.03;;
43700;SDS011;58809;47.984;7.964;2022-11-18T15:23:37;6.07;;;2.42;;
43700;SDS011;58809;47.984;7.964;2022-11-18T15:26:40;3.55;;;2.05;;
43700;SDS011;58809;47.984;7.964;2022-11-18T15:29:43;4.07;;;2.80;;
43700;SDS011;58809;47.984;7.964;2022-11-18T15:32:45;5.80;;;2.58;;
43700;SDS011;58809;47.984;7.964;2022-11-18T15:35:46;5.05;;;2.72;;
43700;SDS011;58809;47.984;7.964;2022-11-18T15:38:48;3.78;;;2.30;;
43700;SDS011;58809;47.984;7.964;2022-11-18T15:41:51;5.65;;;1.90;;
43700;SDS011;58809;47.984;7.964;2022-11-18T15:44:52;8.70;;;7.57;;
43700;SDS011;58809;47.984;7.964;2022-11-18T15:47:54;5.30;;;4.80;;
43700;SDS011;58809;47.984;7.964;2022-11-18T15:50:55;4.65;;;3.47;;
43700;SDS011;58809;47.984;7.964;2022-11-18T15:53:57;5.75;;;3.10;;
43700;SDS011;58809;47.984;7.964;2022-11-18T15:56:58;6.95;;;3.20;;
43700;SDS011;58809;47.984;7.964;2022-11-18T16:00:00;4.88;;;3.10;;
43700;SDS011;58809;47.984;7.964;2022-11-18T16:03:02;53.03;;;45.97;;
43700;SDS011;58809;47.984;7.964;2022-11-18T16:06:03;59.13;;;53.03;;
43700;SDS011;58809;47.984;7.964;2022-11-18T16:09:05;32.00;;;28.88;;
43700;SDS011;58809;47.984;7.964;2022-11-18T16:12:07;11.82;;;10.75;;
43700;SDS011;58809;47.984;7.964;2022-11-18T16:15:27;6.47;;;4.05;;
43700;SDS011;58809;47.984;7.964;2022-11-18T16:18:43;6.43;;;5.55;;
43700;SDS011;58809;47.984;7.964;2022-11-18T16:21:46;11.07;;;9.80;;
43700;SDS011;58809;47.984;7.964;2022-11-18T16:24:49;9.02;;;6.90;;
43700;SDS011;58809;47.984;7.964;2022-11-18T16:27:53;7.65;;;3.70;;
43700;SDS011;58809;47.984;7.964;2022-11-18T16:30:56;6.72;;;3.20;;
43700;SDS011;58809;47.984;7.964;2022-11-18T16:34:20;3.55;;;2.75;;
43700;SDS011;58809;47.984;7.964;2022-11-18T16:37:26;5.65;;;2.92;;
43700;SDS011;58809;47.984;7.964;2022-11-18T16:40:27;6.85;;;3.15;;
43700;SDS011;58809;47.984;7.964;2022-11-18T16:43:29;6.78;;;3.10;;
43700;SDS011;58809;47.984;7.964;2022-11-18T16:46:31;4.05;;;2.90;;
43700;SDS011;58809;47.984;7.964;2022-11-18T16:49:34;7.20;;;3.70;;
43700;SDS011;58809;47.984;7.964;2022-11-18T16:52:36;6.65;;;3.20;;
43700;SDS011;58809;47.984;7.964;2022-11-18T16:55:38;6.32;;;3.45;;
43700;SDS011;58809;47.984;7.964;2022-11-18T16:58:39;7.22;;;3.63;;
43700;SDS011;58809;47.984;7.964;2022-11-18T17:01:41;6.57;;;3.03;;
43700;SDS011;58809;47.984;7.964;2022-11-18T17:04:43;6.28;;;3.05;;
43700;SDS011;58809;47.984;7.964;2022-11-18T17:07:44;6.03;;;2.47;;
43700;SDS011;58809;47.984;7.964;2022-11-18T17:10:46;6.80;;;3.70;;
43700;SDS011;58809;47.984;7.964;2022-11-18T17:13:48;6.50;;;2.85;;
43700;SDS011;58809;47.984;7.964;2022-11-18T17:16:57;3.80;;;2.47;;
43700;SDS011;58809;47.984;7.964;2022-11-18T17:19:59;5.78;;;2.67;;
43700;SDS011;58809;47.984;7.964;2022-11-18T17:23:03;6.90;;;2.92;;
43700;SDS011;58809;47.984;7.964;2022-11-18T17:26:05;6.65;;;3.22;;
43700;SDS011;58809;47.984;7.964;2022-11-18T17:29:08;4.82;;;2.40;;
43700;SDS011;58809;47.984;7.964;2022-11-18T17:32:11;7.07;;;2.92;;
43700;SDS011;58809;47.984;7.964;2022-11-18T17:35:12;5.85;;;2.38;;
43700;SDS011;58809;47.984;7.964;2022-11-18T17:38:14;5.50;;;3.13;;
43700;SDS011;58809;47.984;7.964;2022-11-18T17:41:17;7.60;;;3.35;;
43700;SDS011;58809;47.984;7.964;2022-11-18T17:44:38;6.85;;;2.65;;
43700;SDS011;58809;47.984;7.964;2022-11-18T17:47:40;4.90;;;2.08;;
43700;SDS011;58809;47.984;7.964;2022-11-18T17:50:42;5.88;;;1.90;;
43700;SDS011;58809;47.984;7.964;2022-11-18T17:53:43;10.10;;;2.38;;
43700;SDS011;58809;47.984;7.964;2022-11-18T17:56:45;5.72;;;3.40;;
43700;SDS011;58809;47.984;7.964;2022-11-18T17:59:47;4.72;;;2.60;;
43700;SDS011;58809;47.984;7.964;2022-11-18T18:02:49;6.45;;;2.38;;
43700;SDS011;58809;47.984;7.964;2022-11-18T18:05:50;7.35;;;2.92;;
43700;SDS011;58809;47.984;7.964;2022-11-18T18:08:56;7.57;;;2.95;;
43700;SDS011;58809;47.984;7.964;2022-11-18T18:11:58;6.82;;;2.67;;
43700;SDS011;58809;47.984;7.964;2022-11-18T18:15:01;6.60;;;2.97;;
43700;SDS011;58809;47.984;7.964;2022-11-18T18:18:05;6.60;;;2.75;;
43700;SDS011;58809;47.984;7.964;2022-11-18T18:21:07;4.10;;;3.13;;
43700;SDS011;58809;47.984;7.964;2022-11-18T18:24:13;7.78;;;4.47;;
43700;SDS011;58809;47.984;7.964;2022-11-18T18:27:17;7.40;;;3.53;;
43700;SDS011;58809;47.984;7.964;2022-11-18T18:30:19;8.77;;;4.25;;
43700;SDS011;58809;47.984;7.964;2022-11-18T18:33:21;17.38;;;11.70;;
43700;SDS011;58809;47.984;7.964;2022-11-18T18:36:22;10.80;;;5.70;;
43700;SDS011;58809;47.984;7.964;2022-11-18T18:39:25;12.07;;;5.88;;
43700;SDS011;58809;47.984;7.964;2022-11-18T18:42:26;9.50;;;7.20;;
43700;SDS011;58809;47.984;7.964;2022-11-18T18:45:28;9.60;;;5.85;;
43700;SDS011;58809;47.984;7.964;2022-11-18T18:48:51;13.27;;;8.90;;
43700;SDS011;58809;47.984;7.964;2022-11-18T18:51:53;7.93;;;4.57;;
43700;SDS011;58809;47.984;7.964;2022-11-18T18:54:56;6.07;;;3.78;;
43700;SDS011;58809;47.984;7.964;2022-11-18T18:57:58;6.85;;;3.95;;
43700;SDS011;58809;47.984;7.964;2022-11-18T19:01:04;8.55;;;5.10;;
43700;SDS011;58809;47.984;7.964;2022-11-18T19:04:09;8.45;;;4.00;;
43700;SDS011;58809;47.984;7.964;2022-11-18T19:07:13;15.73;;;6.97;;
43700;SDS011;58809;47.984;7.964;2022-11-18T19:10:16;7.88;;;3.90;;
43700;SDS011;58809;47.984;7.964;2022-11-18T19:13:18;6.55;;;3.70;;
43700;SDS011;58809;47.984;7.964;2022-11-18T19:16:27;8.38;;;3.75;;
43700;SDS011;58809;47.984;7.964;2022-11-18T19:19:29;8.48;;;4.40;;
43700;SDS011;58809;47.984;7.964;2022-11-18T19:22:49;12.07;;;4.88;;
43700;SDS011;58809;47.984;7.964;2022-11-18T19:26:00;8.85;;;6.55;;
43700;SDS011;58809;47.984;7.964;2022-11-18T19:29:02;10.63;;;5.57;;
43700;SDS011;58809;47.984;7.964;2022-11-18T19:32:03;8.00;;;5.13;;
43700;SDS011;58809;47.984;7.964;2022-11-18T19:35:05;7.57;;;4.10;;
43700;SDS011;58809;47.984;7.964;2022-11-18T19:38:07;6.78;;;4.10;;
43700;SDS011;58809;47.984;7.964;2022-11-18T19:41:10;12.52;;;4.43;;
43700;SDS011;58809;47.984;7.964;2022-11-18T19:44:13;7.22;;;3.03;;
43700;SDS011;58809;47.984;7.964;2022-11-18T19:47:15;4.93;;;2.92;;
43700;SDS011;58809;47.984;7.964;2022-11-18T19:50:17;5.30;;;3.70;;
43700;SDS011;58809;47.984;7.964;2022-11-18T19:53:19;6.70;;;4.57;;
43700;SDS011;58809;47.984;7.964;2022-11-18T19:56:40;6.15;;;3.22;;
43700;SDS011;58809;47.984;7.964;2022-11-18T19:59:42;6.93;;;3.95;;
43700;SDS011;58809;47.984;7.964;2022-11-18T20:02:46;8.05;;;3.92;;
43700;SDS011;58809;47.984;7.964;2022-11-18T20:05:48;17.60;;;10.63;;
43700;SDS011;58809;47.984;7.964;2022-11-18T20:08:52;14.90;;;9.68;;
43700;SDS011;58809;47.984;7.964;2022-11-18T20:11:56;10.77;;;6.78;;
43700;SDS011;58809;47.984;7.964;2022-11-18T20:14:57;15.18;;;9.57;;
43700;SDS011;58809;47.984;7.964;2022-11-18T20:17:59;11.30;;;6.65;;
43700;SDS011;58809;47.984;7.964;2022-11-18T20:21:05;8.23;;;5.10;;
43700;SDS011;58809;47.984;7.964;2022-11-18T20:24:15;6.32;;;3.90;;
43700;SDS011;58809;47.984;7.964;2022-11-18T20:27:18;4.35;;;3.00;;
43700;SDS011;58809;47.984;7.964;2022-11-18T20:30:21;5.72;;;3.13;;
43700;SDS011;58809;47.984;7.964;2022-11-18T20:33:22;9.75;;;3.40;;
43700;SDS011;58809;47.984;7.964;2022-11-18T20:36:25;4.72;;;2.40;;
43700;SDS011;58809;47.984;7.964;2022-11-18T20:39:30;7.03;;;2.65;;
43700;SDS011;58809;47.984;7.964;2022-11-18T20:42:32;6.63;;;3.13;;